Lanesboro, MN (55949)

5:49 PM CDT on August 21, 2014 (GMT -0500)
Preston | Change Station
CLOSE
Current Station
Airport
Location: Preston,
Elevation: 1276 ft
Nearby Weather Stations

Elev 1276 ft 43.68 °N, 92.17 °W | Updated 13 minutes ago

Scattered Clouds
Scattered Clouds
81 °F
Feels Like 87 °F
N
9
Wind Variable Wind from South

Today
High -- | Low -- °F
--% Chance of Precip.
Yesterday
High -- | Low -- °F
Precip. -- in
6:19 AM 8:02 PM
Waning Crescent, 12% visible
Pressure 29.88 in
Visibility 10.0 miles
Clouds Scattered Clouds 2000 ft
Scattered Clouds 2600 ft
Heat Index 87 °F
Dew Point 76 °F
Humidity 86%
Rainfall 0.51 in
Snow Depth Not available.
UV 2 out of 12
Pollen 5.60 out of 12
Air Quality Not available.
Flu Activity Not available.
METAR KFKA 212236Z AUTO 19008KT 10SM SCT020 SCT026 27/25 A2988 RMK AO2 T02710245

More Conditions Fewer Conditions

Pressure 29.88 in
Visibility 10.0 miles
Clouds Scattered Clouds 2000 ft
Scattered Clouds 2600 ft
Heat Index 87 °F
Dew Point 76 °F
Humidity 86%
Rainfall 0.51 in
Snow Depth Not available.
UV 2 out of 12
Pollen 5.60 out of 12
Air Quality Not available.
Flu Activity Not available.
METAR KFKA 212236Z AUTO 19008KT 10SM SCT020 SCT026 27/25 A2988 RMK AO2 T02710245

More Conditions Fewer Conditions

10-Day Weather Forecast

Almanac

Astronomy

Aug. 21, 2014 Rise Set
Actual Time 6:19 AM CDT 8:02 PM CDT
Civil Twilight 5:48 AM CDT 8:32 PM CDT
Nautical Twilight 5:11 AM CDT 9:09 PM CDT
Astronomical Twilight 4:31 AM CDT 9:49 PM CDT
Moon 2:46 AM CDT 5:33 PM CDT
Length of Visible Light 14h 43m
Length of Day
13h 42m
Tomorrow will be 2m 46s shorter.
Waning Crescent, 12% of the Moon is Illuminated
Today
Waning Crescent
Aug 25
New
Sep 2
First Quarter
Sep 8
Full
Sep 15
Last Quarter

Today's Extremes

State Highs State Lows

Community

WunderPhotos

Upload Photos

1,746,044 photos uploaded!

WunderBlogs® & News

Nearby

Snow Depth

Station Depth Elevation
No new snow has been reported.

Earthquake Activity

City Distance Mag. Time & Date
No recent earthquake activity has been reported nearby.
Minimum magnitude displayed is 2.5.

Coastal Water Temperatures

Place Temperature
No Stations Reporting

Nearby Weather Stations